WetterOnline ( https://www.wetteronline.de )

Wetter aktuell Potsdam

Aktuelles Wetter: Potsdam (100m)

6-stündlich | Neueste Meldungen
Ortszeit Temperatur Wetter
Mo, 22.04. 2:00 9.8° C fast wolkenlos
So, 21.04. 20:00 17.4° C leicht bewölkt
So, 21.04. 14:00 19.9° C wolkenlos
So, 21.04. 8:00 8.5° C wolkenlos
So, 21.04. 2:00 9.3° C wolkenlos
Sa, 20.04. 20:00 17.3° C fast wolkenlos
Sa, 20.04. 14:00 21.2° C leicht bewölkt
Sa, 20.04. 8:00 6.5° C fast wolkenlos
Ortszeit Temperatur Wetter
Mo, 22.04. 4:00 7.9° C leicht bewölkt
Mo, 22.04. 3:50 7.9° C wolkig
Mo, 22.04. 3:40 8.0° C wolkig
Mo, 22.04. 3:30 8.4° C leicht bewölkt
Mo, 22.04. 3:20 8.4° C wolkig
Mo, 22.04. 3:10 8.6° C wolkig
Mo, 22.04. 3:00 8.9° C leicht bewölkt
Mo, 22.04. 2:30 9.2° C leicht bewölkt
Mo, 22.04. 2:00 9.8° C fast wolkenlos
Mo, 22.04. 1:30 10.5° C wolkenlos
Mo, 22.04. 1:00 11.3° C wolkenlos
Ortszeit Relative Feuchte Sichtweite
Mo, 22.04. 2:00 51% 45 km
So, 21.04. 20:00 34% 45 km
So, 21.04. 14:00 24% 45 km
So, 21.04. 8:00 59% 45 km
So, 21.04. 2:00 54% 50 km
Sa, 20.04. 20:00 35% 50 km
Sa, 20.04. 14:00 24% 45 km
Sa, 20.04. 8:00 69% 30 km
Ortszeit Relative Feuchte Sichtweite
Mo, 22.04. 4:00 58% 45 km
Mo, 22.04. 3:50 58% -
Mo, 22.04. 3:40 57% -
Mo, 22.04. 3:30 55% 45 km
Mo, 22.04. 3:20 55% -
Mo, 22.04. 3:10 55% -
Mo, 22.04. 3:00 54% 45 km
Mo, 22.04. 2:30 54% 45 km
Mo, 22.04. 2:00 51% 45 km
Mo, 22.04. 1:30 49% 45 km
Mo, 22.04. 1:00 47% 45 km
Ortszeit Niederschlagsmenge Niederschlagsart
Mo, 22.04. 2:00 0.0 l/m2 in 6 Std. -
So, 21.04. 20:00 0.0 l/m2 in 12 Std. -
So, 21.04. 14:00 0.0 l/m2 in 6 Std. -
So, 21.04. 8:00 0.0 l/m2 in 12 Std. -
So, 21.04. 2:00 0.0 l/m2 in 6 Std. -
Sa, 20.04. 20:00 0.0 l/m2 in 12 Std. -
Sa, 20.04. 14:00 0.0 l/m2 in 6 Std. -
Sa, 20.04. 8:00 0.0 l/m2 in 12 Std. -
Ortszeit Niederschlagsmenge Niederschlagsart
Mo, 22.04. 4:00 0.0 l/m2 in 1 Std. -
Mo, 22.04. 3:50 keine Meldung -
Mo, 22.04. 3:40 keine Meldung -
Mo, 22.04. 3:30 0.0 l/m2 in 1 Std. -
Mo, 22.04. 3:20 keine Meldung -
Mo, 22.04. 3:10 keine Meldung -
Mo, 22.04. 3:00 0.0 l/m2 in 1 Std. -
Mo, 22.04. 2:30 0.0 l/m2 in 1 Std. -
Mo, 22.04. 2:00 0.0 l/m2 in 1 Std. -
Mo, 22.04. 1:30 0.0 l/m2 in 1 Std. -
Mo, 22.04. 1:00 0.0 l/m2 in 1 Std. -
Ortszeit Stärke Spitze Richtung
km/h Bft. km/h Grad Sektor
Mo, 22.04. 2:00 13 3 28 90° O
So, 21.04. 20:00 9 2 20 80° O
So, 21.04. 14:00 7 2 22 90° O
So, 21.04. 8:00 14 3 25 100° O
So, 21.04. 2:00 17 3 24 70° O
Sa, 20.04. 20:00 7 2 22 360° N
Sa, 20.04. 14:00 7 2 18 30° NO
Sa, 20.04. 8:00 4 1 18 30° NO
Ortszeit Stärke Spitze Richtung
km/h Bft. km/h Grad Sektor
Mo, 22.04. 4:00 17 3 22 90° O
Mo, 22.04. 3:50 17 3 - 90° O
Mo, 22.04. 3:40 17 3 - 90° O
Mo, 22.04. 3:30 17 3 22 100° O
Mo, 22.04. 3:20 17 3 - 100° O
Mo, 22.04. 3:10 17 3 - 100° O
Mo, 22.04. 3:00 17 3 22 90° O
Mo, 22.04. 2:30 14 3 22 90° O
Mo, 22.04. 2:00 13 3 26 90° O
Mo, 22.04. 1:30 17 3 26 90° O
Mo, 22.04. 1:00 18 3 29 90° O
Ortszeit Untergrenze Bedeckung Gattung
total tief tief mittel hoch
Mo, 22.04. 2:00 9000 m 1/8 0/8 - - Ci
So, 21.04. 20:00 9000 m 6/8 0/8 - - Ci
So, 21.04. 14:00 - 0/8 0/8 - - -
So, 21.04. 8:00 - 0/8 0/8 - - -
So, 21.04. 2:00 - 0/8 0/8 - - -
Sa, 20.04. 20:00 9000 m 1/8 0/8 - - Ci
Sa, 20.04. 14:00 7800 m 6/8 0/8 - - Ci
Sa, 20.04. 8:00 9000 m 1/8 0/8 - - Ci
Ortszeit Bedeckungsgrad in Achtel und Wolkenuntergrenze
Mo, 22.04. 4:00 3(9000m)
Mo, 22.04. 3:50 8(10500m)
Mo, 22.04. 3:40 8(10500m)
Mo, 22.04. 3:30 3(9000m)
Mo, 22.04. 3:20 8(10500m)
Mo, 22.04. 3:10 8(10500m)
Mo, 22.04. 3:00 3(9000m) 8(10500m)
Mo, 22.04. 2:30 3(9000m)
Mo, 22.04. 2:00 1(9000m)
Mo, 22.04. 1:30 keine Wolken
Mo, 22.04. 1:00 keine Wolken
Ortszeit Luftdruck NN (hPa) Tendenz (hPa in 3 Std.)
Mo, 22.04. 2:00 1020 - 0,1
So, 21.04. 20:00 1020 - 1,4
So, 21.04. 14:00 1023 - 2,1
So, 21.04. 8:00 1026 - 0,6
So, 21.04. 2:00 1028 - 0,9
Sa, 20.04. 20:00 1028 - 0,9
Sa, 20.04. 14:00 1030 - 1,1
Sa, 20.04. 8:00 1032 + 0,1
Ortszeit Luftdruck NN (hPa) Tendenz (hPa in 3 Std.)
Mo, 22.04. 4:00 1019 - 0,7
Mo, 22.04. 3:50 1019 keine Meldung
Mo, 22.04. 3:40 1019 keine Meldung
Mo, 22.04. 3:30 1020 - 0,5
Mo, 22.04. 3:20 1020 keine Meldung
Mo, 22.04. 3:10 1020 keine Meldung
Mo, 22.04. 3:00 1020 - 0,4
Mo, 22.04. 2:30 1020 - 0,2
Mo, 22.04. 2:00 1020 - 0,1
Mo, 22.04. 1:30 1020 0,0
Mo, 22.04. 1:00 1020 - 0,3
Ortszeit Schneehöhe (cm)
Mo, 22.04. 2:00 0
So, 21.04. 20:00 0
So, 21.04. 14:00 0
So, 21.04. 8:00 0
So, 21.04. 2:00 0
Sa, 20.04. 20:00 0
Sa, 20.04. 14:00 0
Sa, 20.04. 8:00 0
Ortszeit Schneehöhe (cm)
Mo, 22.04. 4:00 -
Mo, 22.04. 3:50 -
Mo, 22.04. 3:40 -
Mo, 22.04. 3:30 -
Mo, 22.04. 3:20 -
Mo, 22.04. 3:10 -
Mo, 22.04. 3:00 -
Mo, 22.04. 2:30 -
Mo, 22.04. 2:00 0
Mo, 22.04. 1:30 -
Mo, 22.04. 1:00 -
Link zu dieser Seite / Seite empfehlen

Das Wetter in ...